Aldie, VA (20105)

9:41 PM EDT on October 17, 2017 (GMT -0400)
Aldie Estates | | Change Station
Active Advisory: Frost Advisory

Elev 385 ft 38.95 °N, 77.60 °W | Updated 11 seconds ago

Clear
Clear
42.3 °F
Feels Like 42 °F
N
0.0
Wind Variable Wind from WNW
Gusts 0.0 mph

Today
High -- | Low -- °F
--% Chance of Precip.
Yesterday
High -- | Low -- °F
Precip. -- in
Pressure 30.33 in
Visibility 10.0 miles
Clouds Clear
Windchill 42 °F
Dew Point 41 °F
Humidity 94%
Rainfall 0.00 in
Snow Depth Not available.
7:22 AM 6:28 PM
Waning Crescent, 3% visible
METAR KJYO 180135Z AUTO 00000KT 10SM CLR 08/06 A3033 RMK AO2
Pressure 30.33 in
Visibility 10.0 miles
Clouds Clear
Windchill 42 °F
Dew Point 41 °F
Humidity 94%
Rainfall 0.00 in
Snow Depth Not available.
7:22 AM 6:28 PM
Waning Crescent, 3% visible
METAR KJYO 180135Z AUTO 00000KT 10SM CLR 08/06 A3033 RMK AO2

Get Your Daily Forecast Email!

Thanks for signing up!

Be on the lookout for a verification email in your inbox.

You'll start receiving severe weather alerts in your inbox..

×

10-Day Weather Forecast

Almanac

Astronomy

Oct. 17, 2017 Rise Set
Actual Time
Civil Twilight
Nautical Twilight
Astronomical Twilight
Moon
Length of Visible Light
Length of Day
Tomorrow will be .
, % of the Moon is Illuminated

Today's Extremes

State Highs State Lows

Community

WunderPhotos

Category 6

Welcome to Category 6. This is the collective home for Weather Underground's featured writeups by Dr. Jeff Masters (right), Bob Henson (left), Chris Burt, and other regular contributors.

Nearby

Air Quality

  Air Quality AQ Index Pollutant
Not available.

Snow Depth

Station Depth Elevation

Earthquake Activity

City Distance Mag. Time & Date
Minimum magnitude displayed is 2.5.

Coastal Water Temperatures

Place Temperature

Stations

Nearby Weather Stations

Station Location Temp. Windchill Dew Point Humidity Wind Precip. Elev Updated Type
                   

Watches & Warnings

Frost Advisory
Issued: 2:19 PM EDT Oct. 17, 2017 – National Weather Service

... Frost advisory remains in effect from 1 am to 9 am EDT
Wednesday...

* temperatures... dropping into the mid 30s by dawn, especially
away from larger bodies of water and urban areas.

* Impacts... a frost advisory means that widespread frost is
expected. Sensitive outdoor plants may be killed if left
uncovered.

Precautionary/preparedness actions...

A frost advisory means that widespread frost is expected.
Sensitive outdoor plants may be killed if left uncovered.